Etusivu
METAR-TAF:

METAR-TAF

Lentoasemat :

Richard B. Russell Airport

Rome, Georgia, Yhdysvallat

Leveyspiiri: 34-20-52N, Pituuspiiri: 085-09-40W, korkeus merenpinnasta: 194 m

Tämänhetkinen sää

Tämä raportti tehtiin 21 minuuttia sitten, kello 08.53 UTC
tyyntä
Lämpötila 23°C
Kosteus 89%
Ilmanpaine 1014 hPa
Näkyvyys: 12.9 km
Hajanaisia pilviä 9500 ft:n korkeudessa
Hajonneita pilviä 12000 ft:n korkeudessa

METAR: KRMG 030853Z AUTO 00000KT 8SM SCT095 BKN120 23/21 A2995 RMK AO2 SLP129 T02280206 55002

Aika: 05:14 (09:14 UTC)


TAF: puuttuu

Säähavainnot ja -ennusteet yli 4000 lentoasemalta (METAR- ja TAF-raportit).

Käytössä olevat sääasemat on merkitty karttaan keltaisilla ja punaisilla pisteillä.

Aseta hiiri pisteen päälle nähdäksesi sääaseman nimen.

Klikkaa sitten nähdäksesi säähavainnot ja -ennusteet.

Kartan vaihtaminen: klikkaa mustalla rastilla varustettuja vihreitä pisteitä, niin voit zoomata sisään; viivalla varustettua vihreää pistettä, niin voit zoomata ulos tai vihreitä nuolia, niin pääset viereisille kartoille.


METAR-TAF: